Terminal Aerodrome Forecast
Issued by NWS

Home | Current Version | Previous Version | Text Only | Print | Product List | Glossary On
Versions: 1 2 3 4 5 6 7 8 9 10 11 12
000
FTUS45 KRIW 202300
TAFBPI
TAF
KBPI 202327Z 2100/2124 26006KT P6SM VCSH SCT030 BKN060
     FM210500 VRB06KT 3SM -SN BR SCT015 OVC025
     FM211600 VRB06KT 5SM -SN BR SCT020 OVC035=

USA.gov is the U.S. government's official web portal to all federal, state and local government web resources and services.